sensor_id;sensor_type;location;lat;lon;timestamp;pressure;altitude;pressure_sealevel;temperature;humidity
71735;BME280;59577;52.122;5.406;2023-03-16T00:02:17;101868.38;;;4.08;70.95
71735;BME280;59577;52.122;5.406;2023-03-16T00:04:44;101873.19;;;4.06;71.25
71735;BME280;59577;52.122;5.406;2023-03-16T00:07:13;101872.63;;;4.09;71.13
71735;BME280;59577;52.122;5.406;2023-03-16T00:09:44;101870.75;;;4.10;71.20
71735;BME280;59577;52.122;5.406;2023-03-16T00:12:13;101876.34;;;4.13;71.19
71735;BME280;59577;52.122;5.406;2023-03-16T00:14:43;101862.94;;;4.13;71.31
71735;BME280;59577;52.122;5.406;2023-03-16T00:17:11;101865.63;;;4.13;71.69
71735;BME280;59577;52.122;5.406;2023-03-16T00:19:49;101853.06;;;4.14;71.50
71735;BME280;59577;52.122;5.406;2023-03-16T00:22:23;101845.81;;;4.14;71.98
71735;BME280;59577;52.122;5.406;2023-03-16T00:24:50;101845.53;;;4.16;71.55
71735;BME280;59577;52.122;5.406;2023-03-16T00:27:18;101848.19;;;4.16;71.96
71735;BME280;59577;52.122;5.406;2023-03-16T00:29:49;101844.44;;;4.17;71.88
71735;BME280;59577;52.122;5.406;2023-03-16T00:32:27;101840.94;;;4.17;71.79
71735;BME280;59577;52.122;5.406;2023-03-16T00:34:54;101838.56;;;4.15;72.25
71735;BME280;59577;52.122;5.406;2023-03-16T00:37:22;101834.28;;;4.14;72.55
71735;BME280;59577;52.122;5.406;2023-03-16T00:39:49;101832.41;;;4.14;72.76
71735;BME280;59577;52.122;5.406;2023-03-16T00:42:18;101830.78;;;4.13;72.78
71735;BME280;59577;52.122;5.406;2023-03-16T00:44:45;101824.38;;;4.14;72.59
71735;BME280;59577;52.122;5.406;2023-03-16T00:47:12;101819.53;;;4.17;72.57
71735;BME280;59577;52.122;5.406;2023-03-16T00:49:42;101821.13;;;4.18;72.92
71735;BME280;59577;52.122;5.406;2023-03-16T00:52:11;101826.47;;;4.18;72.98
71735;BME280;59577;52.122;5.406;2023-03-16T00:54:41;101821.91;;;4.18;73.18
71735;BME280;59577;52.122;5.406;2023-03-16T00:57:10;101823.53;;;4.19;73.54
71735;BME280;59577;52.122;5.406;2023-03-16T00:59:44;101817.66;;;4.17;73.66
71735;BME280;59577;52.122;5.406;2023-03-16T01:02:12;101810.91;;;4.20;73.50
71735;BME280;59577;52.122;5.406;2023-03-16T01:04:39;101805.56;;;4.20;73.60
71735;BME280;59577;52.122;5.406;2023-03-16T01:07:08;101803.94;;;4.19;73.96
71735;BME280;59577;52.122;5.406;2023-03-16T01:09:34;101797.81;;;4.18;74.05
71735;BME280;59577;52.122;5.406;2023-03-16T01:12:14;101793.53;;;4.17;74.62
71735;BME280;59577;52.122;5.406;2023-03-16T01:14:41;101791.94;;;4.16;74.14
71735;BME280;59577;52.122;5.406;2023-03-16T01:17:08;101791.66;;;4.18;74.50
71735;BME280;59577;52.122;5.406;2023-03-16T01:19:36;101780.16;;;4.17;74.35
71735;BME280;59577;52.122;5.406;2023-03-16T01:22:12;101775.84;;;4.16;74.37
71735;BME280;59577;52.122;5.406;2023-03-16T01:24:40;101782.00;;;4.17;74.73
71735;BME280;59577;52.122;5.406;2023-03-16T01:27:08;101791.66;;;4.18;74.95
71735;BME280;59577;52.122;5.406;2023-03-16T01:29:34;101777.47;;;4.17;75.29
71735;BME280;59577;52.122;5.406;2023-03-16T01:32:02;101771.00;;;4.18;74.92
71735;BME280;59577;52.122;5.406;2023-03-16T01:34:29;101764.06;;;4.17;74.91
71735;BME280;59577;52.122;5.406;2023-03-16T01:36:57;101761.91;;;4.19;75.37
71735;BME280;59577;52.122;5.406;2023-03-16T01:39:24;101756.53;;;4.19;75.46
71735;BME280;59577;52.122;5.406;2023-03-16T01:41:51;101757.88;;;4.17;75.70
71735;BME280;59577;52.122;5.406;2023-03-16T01:44:22;101758.72;;;4.17;75.68
71735;BME280;59577;52.122;5.406;2023-03-16T01:46:53;101746.38;;;4.16;75.79
71735;BME280;59577;52.122;5.406;2023-03-16T01:49:32;101755.22;;;4.17;75.77
71735;BME280;59577;52.122;5.406;2023-03-16T01:52:09;101746.38;;;4.16;76.19
71735;BME280;59577;52.122;5.406;2023-03-16T01:54:47;101750.66;;;4.17;76.39
71735;BME280;59577;52.122;5.406;2023-03-16T01:57:17;101750.34;;;4.19;76.15
71735;BME280;59577;52.122;5.406;2023-03-16T01:59:52;101741.53;;;4.18;76.72
71735;BME280;59577;52.122;5.406;2023-03-16T02:02:23;101734.28;;;4.19;76.36
71735;BME280;59577;52.122;5.406;2023-03-16T02:05:21;101728.13;;;4.18;76.65
71735;BME280;59577;52.122;5.406;2023-03-16T02:07:51;101726.25;;;4.19;76.73
71735;BME280;59577;52.122;5.406;2023-03-16T02:10:26;101720.88;;;4.19;76.42
71735;BME280;59577;52.122;5.406;2023-03-16T02:12:54;101721.72;;;4.19;76.50
71735;BME280;59577;52.122;5.406;2023-03-16T02:15:21;101726.25;;;4.19;77.18
71735;BME280;59577;52.122;5.406;2023-03-16T02:17:48;101712.56;;;4.20;76.66
71735;BME280;59577;52.122;5.406;2023-03-16T02:23:03;101713.59;;;4.24;77.07
71735;BME280;59577;52.122;5.406;2023-03-16T02:31:10;101703.38;;;4.26;77.51
71735;BME280;59577;52.122;5.406;2023-03-16T02:33:38;101702.59;;;4.26;77.00
71735;BME280;59577;52.122;5.406;2023-03-16T02:36:05;101703.09;;;4.28;77.66
71735;BME280;59577;52.122;5.406;2023-03-16T02:38:32;101699.31;;;4.29;77.68
71735;BME280;59577;52.122;5.406;2023-03-16T02:41:10;101693.97;;;4.29;77.67
71735;BME280;59577;52.122;5.406;2023-03-16T02:43:39;101702.81;;;4.29;77.79
71735;BME280;59577;52.122;5.406;2023-03-16T02:46:07;101699.84;;;4.31;78.01
71735;BME280;59577;52.122;5.406;2023-03-16T02:48:43;101704.13;;;4.32;77.73
71735;BME280;59577;52.122;5.406;2023-03-16T02:51:10;101706.00;;;4.31;78.29
71735;BME280;59577;52.122;5.406;2023-03-16T02:53:37;101707.09;;;4.30;79.10
71735;BME280;59577;52.122;5.406;2023-03-16T02:56:09;101712.44;;;4.30;78.89
71735;BME280;59577;52.122;5.406;2023-03-16T02:58:36;101712.44;;;4.30;79.25
71735;BME280;59577;52.122;5.406;2023-03-16T03:01:03;101710.88;;;4.29;78.97
71735;BME280;59577;52.122;5.406;2023-03-16T03:03:37;101718.41;;;4.27;79.67
71735;BME280;59577;52.122;5.406;2023-03-16T03:06:06;101709.81;;;4.25;79.83
71735;BME280;59577;52.122;5.406;2023-03-16T03:08:33;101700.22;;;4.24;79.67
71735;BME280;59577;52.122;5.406;2023-03-16T03:11:02;101694.84;;;4.24;79.92
71735;BME280;59577;52.122;5.406;2023-03-16T03:13:29;101695.91;;;4.23;79.91
71735;BME280;59577;52.122;5.406;2023-03-16T03:15:58;101690.56;;;4.23;79.90
71735;BME280;59577;52.122;5.406;2023-03-16T03:18:25;101682.81;;;4.22;79.65
71735;BME280;59577;52.122;5.406;2023-03-16T03:20:52;101690.56;;;4.23;79.58
71735;BME280;59577;52.122;5.406;2023-03-16T03:23:24;101691.34;;;4.24;80.21
71735;BME280;59577;52.122;5.406;2023-03-16T03:25:50;101687.38;;;4.21;80.18
71735;BME280;59577;52.122;5.406;2023-03-16T03:28:17;101688.72;;;4.19;80.73
71735;BME280;59577;52.122;5.406;2023-03-16T03:30:49;101694.09;;;4.19;80.87
71735;BME280;59577;52.122;5.406;2023-03-16T03:33:17;101685.53;;;4.17;80.93
71735;BME280;59577;52.122;5.406;2023-03-16T03:35:44;101677.78;;;4.15;81.06
71735;BME280;59577;52.122;5.406;2023-03-16T03:38:11;101677.78;;;4.15;81.44
71735;BME280;59577;52.122;5.406;2023-03-16T03:40:37;101671.13;;;4.12;81.46
71735;BME280;59577;52.122;5.406;2023-03-16T03:43:04;101671.44;;;4.11;81.72
71735;BME280;59577;52.122;5.406;2023-03-16T03:45:31;101658.03;;;4.11;82.63
71735;BME280;59577;52.122;5.406;2023-03-16T03:47:58;101651.06;;;4.10;82.69
71735;BME280;59577;52.122;5.406;2023-03-16T03:50:26;101652.94;;;4.09;82.68
71735;BME280;59577;52.122;5.406;2023-03-16T03:52:53;101650.84;;;4.06;82.92
71735;BME280;59577;52.122;5.406;2023-03-16T03:55:19;101648.16;;;4.06;82.76
71735;BME280;59577;52.122;5.406;2023-03-16T03:57:48;101641.50;;;4.04;83.42
71735;BME280;59577;52.122;5.406;2023-03-16T04:00:15;101648.50;;;4.00;83.47
71735;BME280;59577;52.122;5.406;2023-03-16T04:02:45;101651.50;;;3.98;84.06
71735;BME280;59577;52.122;5.406;2023-03-16T04:05:12;101651.28;;;3.94;84.36
71735;BME280;59577;52.122;5.406;2023-03-16T04:07:44;101650.75;;;3.92;84.89
71735;BME280;59577;52.122;5.406;2023-03-16T04:10:10;101647.56;;;3.90;84.90
71735;BME280;59577;52.122;5.406;2023-03-16T04:12:37;101636.34;;;3.88;85.53
71735;BME280;59577;52.122;5.406;2023-03-16T04:15:04;101626.19;;;3.85;85.64
71735;BME280;59577;52.122;5.406;2023-03-16T04:17:31;101638.00;;;3.84;85.64
71735;BME280;59577;52.122;5.406;2023-03-16T04:20:09;101632.13;;;3.82;86.09
71735;BME280;59577;52.122;5.406;2023-03-16T04:22:46;101627.84;;;3.81;86.12
71735;BME280;59577;52.122;5.406;2023-03-16T04:25:20;101619.81;;;3.81;86.19
71735;BME280;59577;52.122;5.406;2023-03-16T04:27:47;101619.00;;;3.81;86.13
71735;BME280;59577;52.122;5.406;2023-03-16T04:30:14;101623.56;;;3.80;86.21
71735;BME280;59577;52.122;5.406;2023-03-16T04:32:41;101622.78;;;3.80;86.88
71735;BME280;59577;52.122;5.406;2023-03-16T04:35:12;101631.31;;;3.82;86.39
71735;BME280;59577;52.122;5.406;2023-03-16T04:37:43;101626.25;;;3.80;86.64
71735;BME280;59577;52.122;5.406;2023-03-16T04:40:11;101623.84;;;3.79;87.00
71735;BME280;59577;52.122;5.406;2023-03-16T04:42:42;101625.47;;;3.80;86.98
71735;BME280;59577;52.122;5.406;2023-03-16T04:45:09;101624.06;;;3.82;86.98
71735;BME280;59577;52.122;5.406;2023-03-16T04:47:37;101624.63;;;3.84;86.98
71735;BME280;59577;52.122;5.406;2023-03-16T04:50:05;101627.28;;;3.84;87.04
71735;BME280;59577;52.122;5.406;2023-03-16T04:52:32;101624.31;;;3.86;87.11
71735;BME280;59577;52.122;5.406;2023-03-16T04:54:59;101616.81;;;3.88;86.79
71735;BME280;59577;52.122;5.406;2023-03-16T04:57:27;101625.63;;;3.88;87.08
71735;BME280;59577;52.122;5.406;2023-03-16T04:59:54;101621.56;;;3.91;87.18
71735;BME280;59577;52.122;5.406;2023-03-16T05:02:20;101620.00;;;3.90;86.72
71735;BME280;59577;52.122;5.406;2023-03-16T05:04:55;101627.22;;;3.89;86.67
71735;BME280;59577;52.122;5.406;2023-03-16T05:07:25;101618.88;;;3.91;86.65
71735;BME280;59577;52.122;5.406;2023-03-16T05:09:51;101623.16;;;3.92;86.29
71735;BME280;59577;52.122;5.406;2023-03-16T05:12:26;101618.31;;;3.94;86.15
71735;BME280;59577;52.122;5.406;2023-03-16T05:14:53;101616.97;;;3.97;86.00
71735;BME280;59577;52.122;5.406;2023-03-16T05:17:20;101615.84;;;3.98;86.51
71735;BME280;59577;52.122;5.406;2023-03-16T05:19:47;101614.00;;;3.98;86.28
71735;BME280;59577;52.122;5.406;2023-03-16T05:22:13;101612.41;;;3.97;85.96
71735;BME280;59577;52.122;5.406;2023-03-16T05:24:42;101609.44;;;3.99;86.03
71735;BME280;59577;52.122;5.406;2023-03-16T05:27:09;101612.09;;;3.99;86.47
71735;BME280;59577;52.122;5.406;2023-03-16T05:29:35;101611.31;;;3.98;86.16
71735;BME280;59577;52.122;5.406;2023-03-16T05:32:02;101612.91;;;3.99;86.42
71735;BME280;59577;52.122;5.406;2023-03-16T05:34:29;101612.91;;;3.99;86.40
71735;BME280;59577;52.122;5.406;2023-03-16T05:36:56;101610.22;;;3.99;86.37
71735;BME280;59577;52.122;5.406;2023-03-16T05:39:26;101601.13;;;4.00;86.25
71735;BME280;59577;52.122;5.406;2023-03-16T05:41:59;101600.28;;;4.00;86.67
71735;BME280;59577;52.122;5.406;2023-03-16T05:44:33;101598.44;;;4.00;86.38
71735;BME280;59577;52.122;5.406;2023-03-16T05:47:09;101603.50;;;4.02;86.60
71735;BME280;59577;52.122;5.406;2023-03-16T05:49:36;101601.13;;;4.00;87.09
71735;BME280;59577;52.122;5.406;2023-03-16T05:52:03;101600.59;;;3.98;87.24
71735;BME280;59577;52.122;5.406;2023-03-16T05:54:32;101593.34;;;3.99;87.54
71735;BME280;59577;52.122;5.406;2023-03-16T05:56:59;101597.63;;;4.00;87.47
71735;BME280;59577;52.122;5.406;2023-03-16T05:59:25;101584.53;;;3.98;87.96
71735;BME280;59577;52.122;5.406;2023-03-16T06:01:55;101587.50;;;3.97;87.63
71735;BME280;59577;52.122;5.406;2023-03-16T06:04:24;101586.41;;;3.98;87.96
71735;BME280;59577;52.122;5.406;2023-03-16T06:06:52;101581.03;;;3.98;87.93
71735;BME280;59577;52.122;5.406;2023-03-16T06:09:18;101595.75;;;4.00;87.96
71735;BME280;59577;52.122;5.406;2023-03-16T06:11:45;101583.16;;;4.01;87.67
71735;BME280;59577;52.122;5.406;2023-03-16T06:14:12;101586.34;;;4.03;87.68
71735;BME280;59577;52.122;5.406;2023-03-16T06:16:38;101589.00;;;4.03;87.54
71735;BME280;59577;52.122;5.406;2023-03-16T06:19:05;101589.50;;;4.05;88.03
71735;BME280;59577;52.122;5.406;2023-03-16T06:21:31;101585.75;;;4.06;88.21
71735;BME280;59577;52.122;5.406;2023-03-16T06:23:59;101573.16;;;4.06;88.40
71735;BME280;59577;52.122;5.406;2023-03-16T06:26:35;101573.97;;;4.07;88.07
71735;BME280;59577;52.122;5.406;2023-03-16T06:29:03;101573.09;;;4.11;87.93
71735;BME280;59577;52.122;5.406;2023-03-16T06:31:29;101571.72;;;4.14;88.35
71735;BME280;59577;52.122;5.406;2023-03-16T06:33:56;101569.56;;;4.16;88.06
71735;BME280;59577;52.122;5.406;2023-03-16T06:36:26;101568.47;;;4.17;87.82
71735;BME280;59577;52.122;5.406;2023-03-16T06:38:53;101572.16;;;4.21;88.29
71735;BME280;59577;52.122;5.406;2023-03-16T06:41:19;101559.75;;;4.25;87.91
71735;BME280;59577;52.122;5.406;2023-03-16T06:43:46;101564.53;;;4.28;88.29
71735;BME280;59577;52.122;5.406;2023-03-16T06:46:13;101557.00;;;4.30;88.14
71735;BME280;59577;52.122;5.406;2023-03-16T06:48:40;101557.22;;;4.34;88.55
71735;BME280;59577;52.122;5.406;2023-03-16T06:51:07;101557.75;;;4.36;88.28
71735;BME280;59577;52.122;5.406;2023-03-16T06:53:33;101551.28;;;4.37;88.33
71735;BME280;59577;52.122;5.406;2023-03-16T06:56:00;101560.34;;;4.41;88.58
71735;BME280;59577;52.122;5.406;2023-03-16T06:58:26;101555.69;;;4.47;88.73
71735;BME280;59577;52.122;5.406;2023-03-16T07:00:53;101553.72;;;4.52;88.16
71735;BME280;59577;52.122;5.406;2023-03-16T07:03:20;101548.78;;;4.60;88.64
71735;BME280;59577;52.122;5.406;2023-03-16T07:05:47;101554.56;;;4.67;88.46
71735;BME280;59577;52.122;5.406;2023-03-16T07:08:16;101548.31;;;4.71;88.37
71735;BME280;59577;52.122;5.406;2023-03-16T07:10:42;101550.44;;;4.75;87.39
71735;BME280;59577;52.122;5.406;2023-03-16T07:13:14;101541.88;;;4.73;87.66
71735;BME280;59577;52.122;5.406;2023-03-16T07:15:43;101552.31;;;4.74;87.70
71735;BME280;59577;52.122;5.406;2023-03-16T07:18:10;101538.38;;;4.72;87.71
71735;BME280;59577;52.122;5.406;2023-03-16T07:20:43;101549.63;;;4.74;87.70
71735;BME280;59577;52.122;5.406;2023-03-16T07:23:10;101547.75;;;4.75;87.16
71735;BME280;59577;52.122;5.406;2023-03-16T07:25:38;101548.25;;;4.77;86.55
71735;BME280;59577;52.122;5.406;2023-03-16T07:28:05;101545.28;;;4.78;87.14
71735;BME280;59577;52.122;5.406;2023-03-16T07:30:32;101536.13;;;4.79;86.92
71735;BME280;59577;52.122;5.406;2023-03-16T07:32:59;101546.84;;;4.79;86.97
71735;BME280;59577;52.122;5.406;2023-03-16T07:35:27;101540.69;;;4.79;87.16
71735;BME280;59577;52.122;5.406;2023-03-16T07:37:54;101539.91;;;4.78;87.22
71735;BME280;59577;52.122;5.406;2023-03-16T07:40:52;101542.09;;;4.76;87.53
71735;BME280;59577;52.122;5.406;2023-03-16T07:47:02;101540.28;;;4.71;87.39
71735;BME280;59577;52.122;5.406;2023-03-16T07:49:28;101545.16;;;4.69;87.39
71735;BME280;59577;52.122;5.406;2023-03-16T07:51:55;101545.94;;;4.70;87.94
71735;BME280;59577;52.122;5.406;2023-03-16T07:54:31;101542.97;;;4.71;87.33
71735;BME280;59577;52.122;5.406;2023-03-16T07:57:10;101545.06;;;4.75;87.92
71735;BME280;59577;52.122;5.406;2023-03-16T07:59:37;101554.69;;;4.76;87.77
71735;BME280;59577;52.122;5.406;2023-03-16T08:02:16;101562.16;;;4.79;87.54
71735;BME280;59577;52.122;5.406;2023-03-16T08:04:44;101559.97;;;4.81;87.28
71735;BME280;59577;52.122;5.406;2023-03-16T08:07:12;101552.66;;;4.86;87.76
71735;BME280;59577;52.122;5.406;2023-03-16T08:09:40;101547.19;;;4.92;87.96
71735;BME280;59577;52.122;5.406;2023-03-16T08:12:08;101537.84;;;5.03;87.67
71735;BME280;59577;52.122;5.406;2023-03-16T08:14:35;101538.66;;;5.17;87.82
71735;BME280;59577;52.122;5.406;2023-03-16T08:17:04;101529.44;;;5.37;87.65
71735;BME280;59577;52.122;5.406;2023-03-16T08:19:31;101519.16;;;5.53;86.84
71735;BME280;59577;52.122;5.406;2023-03-16T08:21:58;101522.75;;;5.62;85.56
71735;BME280;59577;52.122;5.406;2023-03-16T08:24:27;101521.53;;;5.69;85.76
71735;BME280;59577;52.122;5.406;2023-03-16T08:26:54;101519.63;;;5.69;85.02
71735;BME280;59577;52.122;5.406;2023-03-16T08:29:24;101515.28;;;5.73;85.22
71735;BME280;59577;52.122;5.406;2023-03-16T08:31:54;101518.75;;;5.74;85.25
71735;BME280;59577;52.122;5.406;2023-03-16T08:34:39;101524.13;;;5.74;84.67
71735;BME280;59577;52.122;5.406;2023-03-16T08:37:05;101521.91;;;5.76;84.73
71735;BME280;59577;52.122;5.406;2023-03-16T08:39:32;101525.31;;;5.81;84.81
71735;BME280;59577;52.122;5.406;2023-03-16T08:41:59;101519.94;;;5.81;84.71
71735;BME280;59577;52.122;5.406;2023-03-16T08:44:26;101523.72;;;5.80;84.31
71735;BME280;59577;52.122;5.406;2023-03-16T08:46:52;101526.88;;;5.82;83.84
71735;BME280;59577;52.122;5.406;2023-03-16T08:49:19;101523.00;;;5.89;83.65
71735;BME280;59577;52.122;5.406;2023-03-16T08:51:46;101523.19;;;5.92;83.78
71735;BME280;59577;52.122;5.406;2023-03-16T08:54:13;101531.47;;;5.96;82.95
71735;BME280;59577;52.122;5.406;2023-03-16T08:56:46;101530.56;;;6.00;82.40
71735;BME280;59577;52.122;5.406;2023-03-16T08:59:12;101521.09;;;6.03;82.24
71735;BME280;59577;52.122;5.406;2023-03-16T09:01:54;101522.88;;;6.08;81.12
71735;BME280;59577;52.122;5.406;2023-03-16T09:04:21;101513.41;;;6.10;81.03
71735;BME280;59577;52.122;5.406;2023-03-16T09:06:49;101517.56;;;6.16;80.54
71735;BME280;59577;52.122;5.406;2023-03-16T09:09:34;101518.41;;;6.26;80.50
71735;BME280;59577;52.122;5.406;2023-03-16T09:12:01;101508.34;;;6.31;80.27
71735;BME280;59577;52.122;5.406;2023-03-16T09:14:29;101514.72;;;6.35;79.78
71735;BME280;59577;52.122;5.406;2023-03-16T09:16:58;101513.09;;;6.34;79.69
71735;BME280;59577;52.122;5.406;2023-03-16T09:19:25;101502.34;;;6.34;79.41
71735;BME280;59577;52.122;5.406;2023-03-16T09:21:57;101510.41;;;6.34;79.65
71735;BME280;59577;52.122;5.406;2023-03-16T09:24:24;101516.69;;;6.30;79.48
71735;BME280;59577;52.122;5.406;2023-03-16T09:26:51;101505.94;;;6.30;79.19
71735;BME280;59577;52.122;5.406;2023-03-16T09:29:18;101510.22;;;6.31;78.88
71735;BME280;59577;52.122;5.406;2023-03-16T09:31:44;101511.31;;;6.30;79.17
71735;BME280;59577;52.122;5.406;2023-03-16T09:34:11;101513.72;;;6.31;79.26
71735;BME280;59577;52.122;5.406;2023-03-16T09:36:45;101504.84;;;6.31;79.59
71735;BME280;59577;52.122;5.406;2023-03-16T09:39:12;101509.16;;;6.32;79.54
71735;BME280;59577;52.122;5.406;2023-03-16T09:42:02;101506.94;;;6.34;78.90
71735;BME280;59577;52.122;5.406;2023-03-16T09:45:03;101506.50;;;6.40;78.43
71735;BME280;59577;52.122;5.406;2023-03-16T09:47:36;101501.69;;;6.51;78.44
71735;BME280;59577;52.122;5.406;2023-03-16T09:53:16;101491.22;;;6.81;77.33
71735;BME280;59577;52.122;5.406;2023-03-16T09:55:48;101505.06;;;6.97;76.49
71735;BME280;59577;52.122;5.406;2023-03-16T09:58:19;101498.44;;;7.03;75.78
71735;BME280;59577;52.122;5.406;2023-03-16T10:04:01;101486.41;;;7.49;74.79
71735;BME280;59577;52.122;5.406;2023-03-16T10:06:31;101488.66;;;8.08;72.39
71735;BME280;59577;52.122;5.406;2023-03-16T10:11:37;101472.53;;;8.64;71.48
71735;BME280;59577;52.122;5.406;2023-03-16T10:14:24;101470.41;;;9.17;69.51
71735;BME280;59577;52.122;5.406;2023-03-16T10:17:05;101459.97;;;9.58;67.39
71735;BME280;59577;52.122;5.406;2023-03-16T10:19:41;101468.53;;;9.60;67.20
71735;BME280;59577;52.122;5.406;2023-03-16T10:22:23;101467.56;;;9.86;65.59
71735;BME280;59577;52.122;5.406;2023-03-16T10:25:00;101470.06;;;9.91;64.51
71735;BME280;59577;52.122;5.406;2023-03-16T10:27:31;101465.16;;;10.05;64.48
71735;BME280;59577;52.122;5.406;2023-03-16T10:29:58;101465.81;;;10.23;63.17
71735;BME280;59577;52.122;5.406;2023-03-16T10:32:31;101463.72;;;10.41;63.24
71735;BME280;59577;52.122;5.406;2023-03-16T10:38:00;101440.22;;;11.03;61.92
71735;BME280;59577;52.122;5.406;2023-03-16T10:40:30;101459.63;;;11.05;60.95
71735;BME280;59577;52.122;5.406;2023-03-16T10:43:13;101444.63;;;10.96;61.35
71735;BME280;59577;52.122;5.406;2023-03-16T10:45:41;101436.16;;;11.09;60.85
71735;BME280;59577;52.122;5.406;2023-03-16T10:48:14;101440.75;;;11.09;61.12
71735;BME280;59577;52.122;5.406;2023-03-16T10:51:05;101443.81;;;11.32;59.97
71735;BME280;59577;52.122;5.406;2023-03-16T10:53:35;101437.84;;;11.26;59.81
71735;BME280;59577;52.122;5.406;2023-03-16T10:56:19;101443.03;;;11.32;59.17
71735;BME280;59577;52.122;5.406;2023-03-16T10:58:48;101433.09;;;11.11;58.97
71735;BME280;59577;52.122;5.406;2023-03-16T11:03:49;101424.53;;;10.97;58.89
71735;BME280;59577;52.122;5.406;2023-03-16T11:06:21;101432.09;;;10.91;59.02
71735;BME280;59577;52.122;5.406;2023-03-16T11:09:13;101423.63;;;10.68;58.28
71735;BME280;59577;52.122;5.406;2023-03-16T11:11:48;101427.78;;;10.53;58.72
71735;BME280;59577;52.122;5.406;2023-03-16T11:14:19;101416.50;;;10.51;59.69
71735;BME280;59577;52.122;5.406;2023-03-16T11:16:56;101415.41;;;10.52;59.71
71735;BME280;59577;52.122;5.406;2023-03-16T11:19:35;101412.06;;;10.34;59.99
71735;BME280;59577;52.122;5.406;2023-03-16T11:22:12;101414.34;;;10.32;59.57
71735;BME280;59577;52.122;5.406;2023-03-16T11:24:51;101404.69;;;10.22;60.13
71735;BME280;59577;52.122;5.406;2023-03-16T11:27:24;101395.56;;;10.27;60.14
71735;BME280;59577;52.122;5.406;2023-03-16T11:30:14;101385.31;;;10.20;59.87
71735;BME280;59577;52.122;5.406;2023-03-16T11:32:47;101387.56;;;10.18;60.36
71735;BME280;59577;52.122;5.406;2023-03-16T11:35:18;101385.09;;;10.25;60.60
71735;BME280;59577;52.122;5.406;2023-03-16T11:40:59;101379.59;;;10.34;60.21
71735;BME280;59577;52.122;5.406;2023-03-16T11:43:52;101377.34;;;10.36;60.24
71735;BME280;59577;52.122;5.406;2023-03-16T11:46:26;101377.72;;;10.47;60.23
71735;BME280;59577;52.122;5.406;2023-03-16T11:51:52;101381.66;;;10.62;59.63
71735;BME280;59577;52.122;5.406;2023-03-16T11:54:34;101374.19;;;10.71;59.42
71735;BME280;59577;52.122;5.406;2023-03-16T11:57:39;101376.13;;;10.83;58.69
71735;BME280;59577;52.122;5.406;2023-03-16T12:05:34;101354.75;;;11.18;58.11
71735;BME280;59577;52.122;5.406;2023-03-16T12:08:34;101347.00;;;11.33;58.18
71735;BME280;59577;52.122;5.406;2023-03-16T12:14:07;101351.47;;;11.53;56.84
71735;BME280;59577;52.122;5.406;2023-03-16T12:19:20;101356.81;;;11.94;55.94
71735;BME280;59577;52.122;5.406;2023-03-16T12:21:58;101336.00;;;11.98;55.46
71735;BME280;59577;52.122;5.406;2023-03-16T12:24:33;101341.19;;;12.19;55.18
71735;BME280;59577;52.122;5.406;2023-03-16T12:27:01;101322.19;;;12.19;55.06
71735;BME280;59577;52.122;5.406;2023-03-16T12:29:47;101316.31;;;12.33;54.17
71735;BME280;59577;52.122;5.406;2023-03-16T12:32:30;101316.03;;;12.54;53.02
71735;BME280;59577;52.122;5.406;2023-03-16T12:35:32;101322.06;;;12.63;52.98
71735;BME280;59577;52.122;5.406;2023-03-16T12:48:55;101299.63;;;12.66;50.22
71735;BME280;59577;52.122;5.406;2023-03-16T12:52:02;101298.06;;;12.65;49.62
71735;BME280;59577;52.122;5.406;2023-03-16T12:54:29;101290.97;;;12.60;50.72
71735;BME280;59577;52.122;5.406;2023-03-16T12:57:07;101283.09;;;12.91;51.53
71735;BME280;59577;52.122;5.406;2023-03-16T12:59:39;101284.72;;;12.95;49.83
71735;BME280;59577;52.122;5.406;2023-03-16T13:02:29;101263.91;;;12.84;50.50
71735;BME280;59577;52.122;5.406;2023-03-16T13:05:02;101248.34;;;12.81;49.68
71735;BME280;59577;52.122;5.406;2023-03-16T13:07:33;101245.47;;;12.93;51.20
71735;BME280;59577;52.122;5.406;2023-03-16T13:10:11;101246.69;;;12.95;50.74
71735;BME280;59577;52.122;5.406;2023-03-16T13:12:40;101236.88;;;13.10;49.78
71735;BME280;59577;52.122;5.406;2023-03-16T13:17:43;101234.91;;;12.88;48.70
71735;BME280;59577;52.122;5.406;2023-03-16T13:26:05;101240.25;;;12.84;48.83
71735;BME280;59577;52.122;5.406;2023-03-16T13:28:37;101231.09;;;12.92;49.26
71735;BME280;59577;52.122;5.406;2023-03-16T13:31:19;101221.28;;;13.07;49.84
71735;BME280;59577;52.122;5.406;2023-03-16T13:33:47;101233.28;;;13.06;48.48
71735;BME280;59577;52.122;5.406;2023-03-16T13:36:14;101226.72;;;13.07;48.31
71735;BME280;59577;52.122;5.406;2023-03-16T13:38:42;101213.19;;;13.11;48.52
71735;BME280;59577;52.122;5.406;2023-03-16T13:41:13;101215.50;;;13.09;47.64
71735;BME280;59577;52.122;5.406;2023-03-16T13:43:43;101207.72;;;13.07;47.63
71735;BME280;59577;52.122;5.406;2023-03-16T13:46:20;101208.25;;;13.16;47.89
71735;BME280;59577;52.122;5.406;2023-03-16T13:48:48;101203.47;;;13.29;48.03
71735;BME280;59577;52.122;5.406;2023-03-16T13:51:17;101208.22;;;13.32;47.17
71735;BME280;59577;52.122;5.406;2023-03-16T13:53:46;101195.81;;;13.35;47.51
71735;BME280;59577;52.122;5.406;2023-03-16T13:56:17;101190.13;;;13.44;47.64
71735;BME280;59577;52.122;5.406;2023-03-16T13:58:48;101196.56;;;13.55;47.59
71735;BME280;59577;52.122;5.406;2023-03-16T14:01:36;101197.75;;;13.58;47.46
71735;BME280;59577;52.122;5.406;2023-03-16T14:04:09;101203.66;;;13.63;47.38
71735;BME280;59577;52.122;5.406;2023-03-16T14:06:39;101200.69;;;13.72;46.83
71735;BME280;59577;52.122;5.406;2023-03-16T14:09:20;101198.28;;;13.67;46.55
71735;BME280;59577;52.122;5.406;2023-03-16T14:11:47;101201.50;;;13.72;47.20
71735;BME280;59577;52.122;5.406;2023-03-16T14:14:22;101205.00;;;13.73;46.35
71735;BME280;59577;52.122;5.406;2023-03-16T14:16:49;101182.34;;;13.65;45.59
71735;BME280;59577;52.122;5.406;2023-03-16T14:19:25;101171.53;;;13.69;46.68
71735;BME280;59577;52.122;5.406;2023-03-16T14:22:00;101179.31;;;13.70;45.89